Crawford, Georgia
Current Conditions -  °F | °C
As of 12:51 PM on Monday 24 Nov 2014 (Local Time) from KAHN Reporting Station
Few Clouds Few Clouds  
Wind Chill: 74°   Ceiling: Unl
Heat Index: 74°   Visibility: 10mi
Dew Point: 58°   Wind: 8mph
Humidity: 57%   Direction: 260°W
Pressure: 29.8"   Gusts: NA
Location:  33.88°N, 83.15°W
Report Text: KAHN 241751Z 26007KT 220V290 10SM FEW040 23/14 A2980 RMK AO2 SLP086 T02330144 10233 20139 58008
Loading
Personal Weather Stations






























Interactive Weather Map New forecast layout! Learn more

10-Day Weather Forecast

Advertisements
Track Severe Weather on mobile